sensor_id;sensor_type;location;lat;lon;timestamp;P1;durP1;ratioP1;P2;durP2;ratioP2
54831;SDS011;40730;53.068;6.572;2023-03-14T00:00:46;25.25;;;4.30;;
54831;SDS011;40730;53.068;6.572;2023-03-14T00:03:12;26.90;;;3.97;;
54831;SDS011;40730;53.068;6.572;2023-03-14T00:05:37;25.50;;;2.72;;
54831;SDS011;40730;53.068;6.572;2023-03-14T00:08:03;31.10;;;5.13;;
54831;SDS011;40730;53.068;6.572;2023-03-14T00:10:29;21.27;;;3.35;;
54831;SDS011;40730;53.068;6.572;2023-03-14T00:12:54;22.20;;;2.63;;
54831;SDS011;40730;53.068;6.572;2023-03-14T00:15:20;20.13;;;2.90;;
54831;SDS011;40730;53.068;6.572;2023-03-14T00:17:45;19.92;;;2.90;;
54831;SDS011;40730;53.068;6.572;2023-03-14T00:20:11;27.20;;;4.63;;
54831;SDS011;40730;53.068;6.572;2023-03-14T00:22:38;25.65;;;3.40;;
54831;SDS011;40730;53.068;6.572;2023-03-14T00:25:04;18.58;;;2.50;;
54831;SDS011;40730;53.068;6.572;2023-03-14T00:27:31;22.00;;;3.05;;
54831;SDS011;40730;53.068;6.572;2023-03-14T00:29:57;18.25;;;2.78;;
54831;SDS011;40730;53.068;6.572;2023-03-14T00:32:23;19.10;;;2.92;;
54831;SDS011;40730;53.068;6.572;2023-03-14T00:34:48;22.02;;;3.00;;
54831;SDS011;40730;53.068;6.572;2023-03-14T00:37:14;21.65;;;2.88;;
54831;SDS011;40730;53.068;6.572;2023-03-14T00:39:40;22.35;;;2.42;;
54831;SDS011;40730;53.068;6.572;2023-03-14T00:42:05;21.67;;;2.83;;
54831;SDS011;40730;53.068;6.572;2023-03-14T00:44:31;16.83;;;2.00;;
54831;SDS011;40730;53.068;6.572;2023-03-14T00:46:57;20.95;;;2.38;;
54831;SDS011;40730;53.068;6.572;2023-03-14T00:49:22;20.25;;;2.58;;
54831;SDS011;40730;53.068;6.572;2023-03-14T00:51:48;14.40;;;2.42;;
54831;SDS011;40730;53.068;6.572;2023-03-14T00:54:14;21.70;;;3.75;;
54831;SDS011;40730;53.068;6.572;2023-03-14T00:56:39;17.95;;;2.20;;
54831;SDS011;40730;53.068;6.572;2023-03-14T00:59:05;15.27;;;2.05;;
54831;SDS011;40730;53.068;6.572;2023-03-14T01:01:31;22.00;;;2.58;;
54831;SDS011;40730;53.068;6.572;2023-03-14T01:03:56;16.38;;;2.33;;
54831;SDS011;40730;53.068;6.572;2023-03-14T01:06:23;21.90;;;2.92;;
54831;SDS011;40730;53.068;6.572;2023-03-14T01:08:50;18.02;;;2.60;;
54831;SDS011;40730;53.068;6.572;2023-03-14T01:11:18;23.25;;;2.45;;
54831;SDS011;40730;53.068;6.572;2023-03-14T01:13:45;25.02;;;2.20;;
54831;SDS011;40730;53.068;6.572;2023-03-14T01:16:11;17.67;;;2.72;;
54831;SDS011;40730;53.068;6.572;2023-03-14T01:18:38;19.42;;;2.38;;
54831;SDS011;40730;53.068;6.572;2023-03-14T01:21:12;17.20;;;3.10;;
54831;SDS011;40730;53.068;6.572;2023-03-14T01:23:40;14.75;;;2.55;;
54831;SDS011;40730;53.068;6.572;2023-03-14T01:26:12;18.33;;;2.40;;
54831;SDS011;40730;53.068;6.572;2023-03-14T01:28:39;15.25;;;2.35;;
54831;SDS011;40730;53.068;6.572;2023-03-14T01:31:06;17.80;;;2.38;;
54831;SDS011;40730;53.068;6.572;2023-03-14T01:33:33;16.58;;;2.03;;
54831;SDS011;40730;53.068;6.572;2023-03-14T01:35:59;17.92;;;2.63;;
54831;SDS011;40730;53.068;6.572;2023-03-14T01:38:27;21.35;;;2.53;;
54831;SDS011;40730;53.068;6.572;2023-03-14T01:40:53;13.70;;;1.52;;
54831;SDS011;40730;53.068;6.572;2023-03-14T01:43:19;16.00;;;2.15;;
54831;SDS011;40730;53.068;6.572;2023-03-14T01:52:21;12.98;;;1.73;;
54831;SDS011;40730;53.068;6.572;2023-03-14T01:54:52;13.10;;;1.83;;
54831;SDS011;40730;53.068;6.572;2023-03-14T01:57:32;12.30;;;1.38;;
54831;SDS011;40730;53.068;6.572;2023-03-14T02:02:39;18.63;;;1.55;;
54831;SDS011;40730;53.068;6.572;2023-03-14T02:05:08;10.90;;;1.25;;
54831;SDS011;40730;53.068;6.572;2023-03-14T02:07:37;12.52;;;1.10;;
54831;SDS011;40730;53.068;6.572;2023-03-14T02:10:14;8.75;;;1.00;;
54831;SDS011;40730;53.068;6.572;2023-03-14T02:12:40;16.63;;;1.50;;
54831;SDS011;40730;53.068;6.572;2023-03-14T02:15:06;9.38;;;0.93;;
54831;SDS011;40730;53.068;6.572;2023-03-14T02:17:32;13.65;;;1.30;;
54831;SDS011;40730;53.068;6.572;2023-03-14T02:22:58;11.57;;;1.30;;
54831;SDS011;40730;53.068;6.572;2023-03-14T02:27:49;15.80;;;1.45;;
54831;SDS011;40730;53.068;6.572;2023-03-14T02:30:17;11.32;;;0.80;;
54831;SDS011;40730;53.068;6.572;2023-03-14T02:32:46;9.48;;;1.10;;
54831;SDS011;40730;53.068;6.572;2023-03-14T02:35:14;10.45;;;0.90;;
54831;SDS011;40730;53.068;6.572;2023-03-14T02:40:46;8.40;;;1.02;;
54831;SDS011;40730;53.068;6.572;2023-03-14T02:43:12;12.27;;;1.23;;
54831;SDS011;40730;53.068;6.572;2023-03-14T02:48:13;9.48;;;1.25;;
54831;SDS011;40730;53.068;6.572;2023-03-14T02:50:59;8.95;;;1.05;;
54831;SDS011;40730;53.068;6.572;2023-03-14T02:53:30;10.15;;;0.70;;
54831;SDS011;40730;53.068;6.572;2023-03-14T02:55:57;9.85;;;0.75;;
54831;SDS011;40730;53.068;6.572;2023-03-14T02:58:24;7.97;;;0.90;;
54831;SDS011;40730;53.068;6.572;2023-03-14T03:00:50;9.93;;;1.85;;
54831;SDS011;40730;53.068;6.572;2023-03-14T03:03:16;11.75;;;1.65;;
54831;SDS011;40730;53.068;6.572;2023-03-14T03:05:42;10.93;;;1.52;;
54831;SDS011;40730;53.068;6.572;2023-03-14T03:08:09;9.82;;;1.00;;
54831;SDS011;40730;53.068;6.572;2023-03-14T03:10:35;8.23;;;0.85;;
54831;SDS011;40730;53.068;6.572;2023-03-14T03:13:01;5.78;;;0.60;;
54831;SDS011;40730;53.068;6.572;2023-03-14T03:15:27;11.05;;;0.77;;
54831;SDS011;40730;53.068;6.572;2023-03-14T03:17:53;7.80;;;0.98;;
54831;SDS011;40730;53.068;6.572;2023-03-14T03:20:18;13.63;;;1.23;;
54831;SDS011;40730;53.068;6.572;2023-03-14T03:22:44;7.55;;;0.80;;
54831;SDS011;40730;53.068;6.572;2023-03-14T03:25:09;10.68;;;1.42;;
54831;SDS011;40730;53.068;6.572;2023-03-14T03:27:35;14.07;;;2.20;;
54831;SDS011;40730;53.068;6.572;2023-03-14T03:30:02;11.70;;;2.45;;
54831;SDS011;40730;53.068;6.572;2023-03-14T03:32:29;15.35;;;2.58;;
54831;SDS011;40730;53.068;6.572;2023-03-14T03:34:54;11.43;;;3.20;;
54831;SDS011;40730;53.068;6.572;2023-03-14T03:37:20;17.73;;;3.17;;
54831;SDS011;40730;53.068;6.572;2023-03-14T03:39:45;17.73;;;4.22;;
54831;SDS011;40730;53.068;6.572;2023-03-14T03:42:11;18.48;;;3.88;;
54831;SDS011;40730;53.068;6.572;2023-03-14T03:44:37;16.02;;;4.32;;
54831;SDS011;40730;53.068;6.572;2023-03-14T03:47:02;12.40;;;3.35;;
54831;SDS011;40730;53.068;6.572;2023-03-14T03:49:31;23.13;;;5.97;;
54831;SDS011;40730;53.068;6.572;2023-03-14T03:51:57;18.50;;;4.15;;
54831;SDS011;40730;53.068;6.572;2023-03-14T03:54:23;10.45;;;3.65;;
54831;SDS011;40730;53.068;6.572;2023-03-14T03:56:48;18.60;;;5.35;;
54831;SDS011;40730;53.068;6.572;2023-03-14T03:59:14;16.38;;;4.43;;
54831;SDS011;40730;53.068;6.572;2023-03-14T04:01:40;18.42;;;4.00;;
54831;SDS011;40730;53.068;6.572;2023-03-14T04:04:05;14.43;;;4.38;;
54831;SDS011;40730;53.068;6.572;2023-03-14T04:06:31;17.80;;;4.40;;
54831;SDS011;40730;53.068;6.572;2023-03-14T04:08:57;18.25;;;5.20;;
54831;SDS011;40730;53.068;6.572;2023-03-14T04:11:23;17.98;;;4.88;;
54831;SDS011;40730;53.068;6.572;2023-03-14T04:13:49;21.70;;;5.05;;
54831;SDS011;40730;53.068;6.572;2023-03-14T04:16:16;12.93;;;4.85;;
54831;SDS011;40730;53.068;6.572;2023-03-14T04:18:44;19.38;;;5.63;;
54831;SDS011;40730;53.068;6.572;2023-03-14T04:21:09;18.92;;;6.60;;
54831;SDS011;40730;53.068;6.572;2023-03-14T04:23:35;16.42;;;5.57;;
54831;SDS011;40730;53.068;6.572;2023-03-14T04:26:01;14.75;;;6.22;;
54831;SDS011;40730;53.068;6.572;2023-03-14T04:28:27;16.67;;;7.18;;
54831;SDS011;40730;53.068;6.572;2023-03-14T04:30:53;17.00;;;6.25;;
54831;SDS011;40730;53.068;6.572;2023-03-14T04:33:19;15.85;;;5.85;;
54831;SDS011;40730;53.068;6.572;2023-03-14T04:35:45;18.65;;;6.25;;
54831;SDS011;40730;53.068;6.572;2023-03-14T04:38:11;17.85;;;5.72;;
54831;SDS011;40730;53.068;6.572;2023-03-14T04:40:38;18.35;;;6.00;;
54831;SDS011;40730;53.068;6.572;2023-03-14T04:43:04;22.80;;;5.90;;
54831;SDS011;40730;53.068;6.572;2023-03-14T04:45:30;19.40;;;6.38;;
54831;SDS011;40730;53.068;6.572;2023-03-14T04:47:55;21.02;;;6.15;;
54831;SDS011;40730;53.068;6.572;2023-03-14T04:50:21;19.27;;;5.43;;
54831;SDS011;40730;53.068;6.572;2023-03-14T04:52:47;14.95;;;5.47;;
54831;SDS011;40730;53.068;6.572;2023-03-14T04:55:13;18.73;;;5.47;;
54831;SDS011;40730;53.068;6.572;2023-03-14T04:57:38;14.20;;;5.28;;
54831;SDS011;40730;53.068;6.572;2023-03-14T05:00:04;15.15;;;4.63;;
54831;SDS011;40730;53.068;6.572;2023-03-14T05:02:33;12.50;;;4.78;;
54831;SDS011;40730;53.068;6.572;2023-03-14T05:04:59;15.10;;;5.43;;
54831;SDS011;40730;53.068;6.572;2023-03-14T05:07:25;16.40;;;4.75;;
54831;SDS011;40730;53.068;6.572;2023-03-14T05:09:50;15.65;;;4.45;;
54831;SDS011;40730;53.068;6.572;2023-03-14T05:12:17;18.92;;;5.88;;
54831;SDS011;40730;53.068;6.572;2023-03-14T05:14:43;16.05;;;5.15;;
54831;SDS011;40730;53.068;6.572;2023-03-14T05:17:09;15.05;;;5.50;;
54831;SDS011;40730;53.068;6.572;2023-03-14T05:19:35;14.48;;;4.57;;
54831;SDS011;40730;53.068;6.572;2023-03-14T05:22:01;16.92;;;5.25;;
54831;SDS011;40730;53.068;6.572;2023-03-14T05:24:26;17.05;;;5.07;;
54831;SDS011;40730;53.068;6.572;2023-03-14T05:26:52;20.63;;;6.65;;
54831;SDS011;40730;53.068;6.572;2023-03-14T05:29:18;18.15;;;4.70;;
54831;SDS011;40730;53.068;6.572;2023-03-14T05:31:44;21.60;;;6.13;;
54831;SDS011;40730;53.068;6.572;2023-03-14T05:34:09;13.68;;;5.50;;
54831;SDS011;40730;53.068;6.572;2023-03-14T05:36:35;17.65;;;7.35;;
54831;SDS011;40730;53.068;6.572;2023-03-14T05:39:00;22.30;;;6.32;;
54831;SDS011;40730;53.068;6.572;2023-03-14T05:41:26;21.75;;;6.75;;
54831;SDS011;40730;53.068;6.572;2023-03-14T05:43:51;20.15;;;6.18;;
54831;SDS011;40730;53.068;6.572;2023-03-14T05:46:17;22.00;;;7.00;;
54831;SDS011;40730;53.068;6.572;2023-03-14T05:48:43;18.23;;;6.55;;
54831;SDS011;40730;53.068;6.572;2023-03-14T05:51:08;24.55;;;6.70;;
54831;SDS011;40730;53.068;6.572;2023-03-14T05:53:34;17.85;;;7.00;;
54831;SDS011;40730;53.068;6.572;2023-03-14T05:55:59;20.77;;;6.10;;
54831;SDS011;40730;53.068;6.572;2023-03-14T05:58:25;17.95;;;5.90;;
54831;SDS011;40730;53.068;6.572;2023-03-14T06:00:50;17.55;;;6.95;;
54831;SDS011;40730;53.068;6.572;2023-03-14T06:03:16;20.95;;;6.43;;
54831;SDS011;40730;53.068;6.572;2023-03-14T06:05:42;23.63;;;7.47;;
54831;SDS011;40730;53.068;6.572;2023-03-14T06:08:07;13.93;;;7.40;;
54831;SDS011;40730;53.068;6.572;2023-03-14T06:10:34;22.13;;;7.43;;
54831;SDS011;40730;53.068;6.572;2023-03-14T06:13:01;16.17;;;6.95;;
54831;SDS011;40730;53.068;6.572;2023-03-14T06:15:26;17.35;;;6.65;;
54831;SDS011;40730;53.068;6.572;2023-03-14T06:17:53;19.35;;;6.57;;
54831;SDS011;40730;53.068;6.572;2023-03-14T06:20:20;17.65;;;5.88;;
54831;SDS011;40730;53.068;6.572;2023-03-14T06:22:45;18.55;;;5.80;;
54831;SDS011;40730;53.068;6.572;2023-03-14T06:25:11;18.13;;;5.35;;
54831;SDS011;40730;53.068;6.572;2023-03-14T06:27:37;10.73;;;4.55;;
54831;SDS011;40730;53.068;6.572;2023-03-14T06:30:02;12.18;;;4.63;;
54831;SDS011;40730;53.068;6.572;2023-03-14T06:32:28;12.13;;;3.78;;
54831;SDS011;40730;53.068;6.572;2023-03-14T06:34:54;10.38;;;4.43;;
54831;SDS011;40730;53.068;6.572;2023-03-14T06:37:20;16.73;;;4.38;;
54831;SDS011;40730;53.068;6.572;2023-03-14T06:39:45;11.40;;;4.20;;
54831;SDS011;40730;53.068;6.572;2023-03-14T06:42:11;11.05;;;4.50;;
54831;SDS011;40730;53.068;6.572;2023-03-14T06:44:36;14.00;;;5.22;;
54831;SDS011;40730;53.068;6.572;2023-03-14T06:47:02;14.63;;;5.88;;
54831;SDS011;40730;53.068;6.572;2023-03-14T06:49:27;16.38;;;5.78;;
54831;SDS011;40730;53.068;6.572;2023-03-14T06:51:53;4.72;;;0.77;;
54831;SDS011;40730;53.068;6.572;2023-03-14T06:54:19;4.10;;;0.20;;
54831;SDS011;40730;53.068;6.572;2023-03-14T06:56:44;5.75;;;0.10;;
54831;SDS011;40730;53.068;6.572;2023-03-14T06:59:10;6.55;;;0.10;;
54831;SDS011;40730;53.068;6.572;2023-03-14T07:01:36;6.40;;;0.20;;
54831;SDS011;40730;53.068;6.572;2023-03-14T07:04:01;4.70;;;0.25;;
54831;SDS011;40730;53.068;6.572;2023-03-14T07:06:27;9.23;;;0.60;;
54831;SDS011;40730;53.068;6.572;2023-03-14T07:08:56;8.43;;;0.30;;
54831;SDS011;40730;53.068;6.572;2023-03-14T07:11:22;14.38;;;0.47;;
54831;SDS011;40730;53.068;6.572;2023-03-14T07:13:48;13.18;;;0.50;;
54831;SDS011;40730;53.068;6.572;2023-03-14T07:16:14;14.18;;;0.82;;
54831;SDS011;40730;53.068;6.572;2023-03-14T07:18:40;7.88;;;0.30;;
54831;SDS011;40730;53.068;6.572;2023-03-14T07:21:06;8.88;;;0.68;;
54831;SDS011;40730;53.068;6.572;2023-03-14T07:23:33;7.68;;;0.20;;
54831;SDS011;40730;53.068;6.572;2023-03-14T07:25:59;8.13;;;0.43;;
54831;SDS011;40730;53.068;6.572;2023-03-14T07:28:25;6.60;;;0.25;;
54831;SDS011;40730;53.068;6.572;2023-03-14T07:30:52;2.10;;;0.17;;
54831;SDS011;40730;53.068;6.572;2023-03-14T07:33:18;9.25;;;0.40;;
54831;SDS011;40730;53.068;6.572;2023-03-14T07:35:45;6.22;;;0.43;;
54831;SDS011;40730;53.068;6.572;2023-03-14T07:38:15;1.35;;;0.10;;
54831;SDS011;40730;53.068;6.572;2023-03-14T07:40:41;6.60;;;0.38;;
54831;SDS011;40730;53.068;6.572;2023-03-14T07:43:07;3.05;;;0.08;;
54831;SDS011;40730;53.068;6.572;2023-03-14T07:45:32;1.02;;;0.00;;
54831;SDS011;40730;53.068;6.572;2023-03-14T07:47:58;1.42;;;0.00;;
54831;SDS011;40730;53.068;6.572;2023-03-14T07:50:24;2.90;;;0.10;;
54831;SDS011;40730;53.068;6.572;2023-03-14T07:52:50;4.00;;;0.30;;
54831;SDS011;40730;53.068;6.572;2023-03-14T07:55:16;4.72;;;0.10;;
54831;SDS011;40730;53.068;6.572;2023-03-14T07:57:42;0.15;;;0.00;;
54831;SDS011;40730;53.068;6.572;2023-03-14T08:00:07;1.42;;;0.08;;
54831;SDS011;40730;53.068;6.572;2023-03-14T08:02:36;2.75;;;0.08;;
54831;SDS011;40730;53.068;6.572;2023-03-14T08:05:02;3.88;;;0.10;;
54831;SDS011;40730;53.068;6.572;2023-03-14T08:07:28;4.97;;;0.15;;
54831;SDS011;40730;53.068;6.572;2023-03-14T08:09:54;2.58;;;0.00;;
54831;SDS011;40730;53.068;6.572;2023-03-14T08:12:20;4.03;;;0.13;;
54831;SDS011;40730;53.068;6.572;2023-03-14T08:14:45;2.10;;;0.00;;
54831;SDS011;40730;53.068;6.572;2023-03-14T08:17:11;2.00;;;0.00;;
54831;SDS011;40730;53.068;6.572;2023-03-14T08:19:37;3.60;;;0.00;;
54831;SDS011;40730;53.068;6.572;2023-03-14T08:22:03;3.92;;;0.10;;
54831;SDS011;40730;53.068;6.572;2023-03-14T08:24:29;3.13;;;0.10;;
54831;SDS011;40730;53.068;6.572;2023-03-14T08:26:56;1.80;;;0.00;;
54831;SDS011;40730;53.068;6.572;2023-03-14T08:29:21;1.85;;;0.00;;
54831;SDS011;40730;53.068;6.572;2023-03-14T08:31:47;4.90;;;0.10;;
54831;SDS011;40730;53.068;6.572;2023-03-14T08:34:14;2.35;;;0.30;;
54831;SDS011;40730;53.068;6.572;2023-03-14T08:36:40;6.82;;;0.10;;
54831;SDS011;40730;53.068;6.572;2023-03-14T08:39:05;3.30;;;0.20;;
54831;SDS011;40730;53.068;6.572;2023-03-14T08:41:32;2.22;;;0.10;;
54831;SDS011;40730;53.068;6.572;2023-03-14T08:43:58;7.68;;;0.22;;
54831;SDS011;40730;53.068;6.572;2023-03-14T08:46:23;7.82;;;0.20;;
54831;SDS011;40730;53.068;6.572;2023-03-14T08:48:49;5.07;;;0.15;;
54831;SDS011;40730;53.068;6.572;2023-03-14T08:51:15;3.72;;;0.15;;
54831;SDS011;40730;53.068;6.572;2023-03-14T08:53:40;6.05;;;0.20;;
54831;SDS011;40730;53.068;6.572;2023-03-14T08:56:07;6.43;;;0.45;;
54831;SDS011;40730;53.068;6.572;2023-03-14T08:58:35;6.47;;;0.20;;
54831;SDS011;40730;53.068;6.572;2023-03-14T09:01:03;5.10;;;0.77;;
54831;SDS011;40730;53.068;6.572;2023-03-14T09:03:30;6.03;;;0.40;;
54831;SDS011;40730;53.068;6.572;2023-03-14T09:05:55;8.68;;;0.90;;
54831;SDS011;40730;53.068;6.572;2023-03-14T09:08:21;8.75;;;0.73;;
54831;SDS011;40730;53.068;6.572;2023-03-14T09:10:46;9.05;;;1.83;;
54831;SDS011;40730;53.068;6.572;2023-03-14T09:13:12;8.38;;;0.60;;
54831;SDS011;40730;53.068;6.572;2023-03-14T09:15:38;13.27;;;0.68;;
54831;SDS011;40730;53.068;6.572;2023-03-14T09:18:03;8.90;;;0.68;;
54831;SDS011;40730;53.068;6.572;2023-03-14T09:20:29;11.27;;;0.88;;
54831;SDS011;40730;53.068;6.572;2023-03-14T09:22:55;3.72;;;0.28;;
54831;SDS011;40730;53.068;6.572;2023-03-14T09:25:20;9.57;;;0.68;;
54831;SDS011;40730;53.068;6.572;2023-03-14T09:27:46;12.82;;;0.95;;
54831;SDS011;40730;53.068;6.572;2023-03-14T09:30:11;16.25;;;0.98;;
54831;SDS011;40730;53.068;6.572;2023-03-14T09:32:37;17.15;;;1.73;;
54831;SDS011;40730;53.068;6.572;2023-03-14T09:36:03;12.75;;;2.20;;
54831;SDS011;40730;53.068;6.572;2023-03-14T09:38:30;10.27;;;0.63;;
54831;SDS011;40730;53.068;6.572;2023-03-14T09:40:58;8.98;;;0.88;;
54831;SDS011;40730;53.068;6.572;2023-03-14T09:43:26;12.90;;;1.02;;
54831;SDS011;40730;53.068;6.572;2023-03-14T09:45:56;16.10;;;1.42;;
54831;SDS011;40730;53.068;6.572;2023-03-14T09:48:27;15.23;;;0.95;;
54831;SDS011;40730;53.068;6.572;2023-03-14T09:50:56;17.90;;;1.48;;
54831;SDS011;40730;53.068;6.572;2023-03-14T09:53:31;16.95;;;0.98;;
54831;SDS011;40730;53.068;6.572;2023-03-14T09:56:09;10.63;;;0.73;;
54831;SDS011;40730;53.068;6.572;2023-03-14T09:58:43;10.02;;;0.93;;
54831;SDS011;40730;53.068;6.572;2023-03-14T10:01:11;11.95;;;0.70;;
54831;SDS011;40730;53.068;6.572;2023-03-14T10:03:40;16.23;;;2.22;;
54831;SDS011;40730;53.068;6.572;2023-03-14T10:06:13;19.65;;;1.88;;
54831;SDS011;40730;53.068;6.572;2023-03-14T10:08:40;11.75;;;1.15;;
54831;SDS011;40730;53.068;6.572;2023-03-14T10:11:09;18.42;;;1.00;;
54831;SDS011;40730;53.068;6.572;2023-03-14T10:14:14;13.23;;;0.77;;
54831;SDS011;40730;53.068;6.572;2023-03-14T10:16:44;16.83;;;1.35;;
54831;SDS011;40730;53.068;6.572;2023-03-14T10:21:42;14.38;;;1.20;;
54831;SDS011;40730;53.068;6.572;2023-03-14T10:24:19;13.50;;;0.73;;
54831;SDS011;40730;53.068;6.572;2023-03-14T10:26:53;13.93;;;1.23;;
54831;SDS011;40730;53.068;6.572;2023-03-14T10:29:23;17.33;;;0.73;;
54831;SDS011;40730;53.068;6.572;2023-03-14T10:32:05;14.48;;;1.35;;
54831;SDS011;40730;53.068;6.572;2023-03-14T10:34:36;12.63;;;1.23;;
54831;SDS011;40730;53.068;6.572;2023-03-14T10:37:22;8.40;;;1.02;;
54831;SDS011;40730;53.068;6.572;2023-03-14T10:40:01;8.32;;;1.05;;
54831;SDS011;40730;53.068;6.572;2023-03-14T10:42:30;10.75;;;0.80;;
54831;SDS011;40730;53.068;6.572;2023-03-14T10:45:03;7.38;;;0.43;;
54831;SDS011;40730;53.068;6.572;2023-03-14T10:47:33;12.00;;;1.30;;
54831;SDS011;40730;53.068;6.572;2023-03-14T10:50:21;10.73;;;1.20;;
54831;SDS011;40730;53.068;6.572;2023-03-14T10:52:48;10.57;;;0.85;;
54831;SDS011;40730;53.068;6.572;2023-03-14T10:55:15;10.45;;;0.47;;
54831;SDS011;40730;53.068;6.572;2023-03-14T10:57:41;10.57;;;0.90;;
54831;SDS011;40730;53.068;6.572;2023-03-14T11:00:18;6.25;;;0.45;;
54831;SDS011;40730;53.068;6.572;2023-03-14T11:03:06;16.63;;;1.02;;
54831;SDS011;40730;53.068;6.572;2023-03-14T11:08:46;13.45;;;1.35;;
54831;SDS011;40730;53.068;6.572;2023-03-14T11:11:30;5.78;;;0.30;;
54831;SDS011;40730;53.068;6.572;2023-03-14T11:25:43;6.30;;;0.55;;
54831;SDS011;40730;53.068;6.572;2023-03-14T11:28:43;8.30;;;0.65;;
54831;SDS011;40730;53.068;6.572;2023-03-14T11:31:16;8.43;;;0.50;;
54831;SDS011;40730;53.068;6.572;2023-03-14T11:36:25;7.15;;;0.70;;
54831;SDS011;40730;53.068;6.572;2023-03-14T11:39:15;8.05;;;0.52;;
54831;SDS011;40730;53.068;6.572;2023-03-14T11:41:51;2.97;;;0.20;;
54831;SDS011;40730;53.068;6.572;2023-03-14T11:44:25;3.05;;;0.40;;
54831;SDS011;40730;53.068;6.572;2023-03-14T11:49:53;4.57;;;0.22;;
54831;SDS011;40730;53.068;6.572;2023-03-14T11:52:34;2.55;;;0.32;;
54831;SDS011;40730;53.068;6.572;2023-03-14T11:58:09;3.60;;;0.25;;
54831;SDS011;40730;53.068;6.572;2023-03-14T12:01:11;7.70;;;0.30;;
54831;SDS011;40730;53.068;6.572;2023-03-14T12:03:52;3.67;;;0.20;;
54831;SDS011;40730;53.068;6.572;2023-03-14T12:06:28;1.45;;;0.20;;
54831;SDS011;40730;53.068;6.572;2023-03-14T12:09:05;3.22;;;0.20;;
54831;SDS011;40730;53.068;6.572;2023-03-14T12:11:51;4.55;;;0.30;;
54831;SDS011;40730;53.068;6.572;2023-03-14T12:14:29;5.78;;;0.35;;
54831;SDS011;40730;53.068;6.572;2023-03-14T12:19:32;9.50;;;0.63;;
54831;SDS011;40730;53.068;6.572;2023-03-14T12:22:13;8.18;;;0.88;;
54831;SDS011;40730;53.068;6.572;2023-03-14T12:24:51;6.13;;;0.40;;
54831;SDS011;40730;53.068;6.572;2023-03-14T12:33:38;4.68;;;0.20;;
54831;SDS011;40730;53.068;6.572;2023-03-14T12:35:45;7.35;;;0.40;;
54831;SDS011;40730;53.068;6.572;2023-03-14T12:40:52;6.35;;;0.30;;
54831;SDS011;40730;53.068;6.572;2023-03-14T12:43:38;4.15;;;0.30;;
54831;SDS011;40730;53.068;6.572;2023-03-14T12:46:08;8.63;;;0.52;;
54831;SDS011;40730;53.068;6.572;2023-03-14T12:48:44;4.57;;;0.40;;
54831;SDS011;40730;53.068;6.572;2023-03-14T12:51:16;1.75;;;0.10;;
54831;SDS011;40730;53.068;6.572;2023-03-14T12:56:28;4.68;;;0.43;;
54831;SDS011;40730;53.068;6.572;2023-03-14T12:59:13;5.43;;;0.50;;
54831;SDS011;40730;53.068;6.572;2023-03-14T13:05:17;5.35;;;0.75;;
54831;SDS011;40730;53.068;6.572;2023-03-14T13:07:31;5.60;;;0.40;;
54831;SDS011;40730;53.068;6.572;2023-03-14T13:10:16;4.95;;;0.75;;
54831;SDS011;40730;53.068;6.572;2023-03-14T13:15:41;5.25;;;0.40;;
54831;SDS011;40730;53.068;6.572;2023-03-14T13:18:12;9.60;;;0.80;;
54831;SDS011;40730;53.068;6.572;2023-03-14T13:20:50;4.03;;;0.20;;
54831;SDS011;40730;53.068;6.572;2023-03-14T13:23:22;5.32;;;0.20;;
54831;SDS011;40730;53.068;6.572;2023-03-14T13:25:49;7.78;;;0.50;;
54831;SDS011;40730;53.068;6.572;2023-03-14T13:28:16;9.45;;;0.30;;
54831;SDS011;40730;53.068;6.572;2023-03-14T13:30:46;5.10;;;0.30;;
54831;SDS011;40730;53.068;6.572;2023-03-14T13:33:14;5.20;;;0.30;;
54831;SDS011;40730;53.068;6.572;2023-03-14T13:35:44;3.03;;;0.30;;
54831;SDS011;40730;53.068;6.572;2023-03-14T13:38:20;4.78;;;0.50;;
54831;SDS011;40730;53.068;6.572;2023-03-14T13:40:48;9.82;;;0.40;;
54831;SDS011;40730;53.068;6.572;2023-03-14T13:45:50;3.55;;;0.20;;
54831;SDS011;40730;53.068;6.572;2023-03-14T13:48:17;6.57;;;0.28;;
54831;SDS011;40730;53.068;6.572;2023-03-14T13:50:55;3.80;;;0.43;;
54831;SDS011;40730;53.068;6.572;2023-03-14T13:53:26;6.40;;;0.50;;
54831;SDS011;40730;53.068;6.572;2023-03-14T13:55:52;4.20;;;0.38;;
54831;SDS011;40730;53.068;6.572;2023-03-14T14:00:25;6.40;;;0.45;;
54831;SDS011;40730;53.068;6.572;2023-03-14T14:02:53;3.55;;;0.45;;
54831;SDS011;40730;53.068;6.572;2023-03-14T14:05:20;10.45;;;0.60;;
54831;SDS011;40730;53.068;6.572;2023-03-14T14:07:46;4.07;;;0.30;;
54831;SDS011;40730;53.068;6.572;2023-03-14T14:10:13;5.85;;;0.30;;
54831;SDS011;40730;53.068;6.572;2023-03-14T14:12:45;5.75;;;0.63;;
54831;SDS011;40730;53.068;6.572;2023-03-14T14:18:04;6.28;;;0.20;;
54831;SDS011;40730;53.068;6.572;2023-03-14T14:20:43;3.72;;;0.30;;
54831;SDS011;40730;53.068;6.572;2023-03-14T14:23:11;4.10;;;0.30;;
54831;SDS011;40730;53.068;6.572;2023-03-14T14:25:40;4.40;;;0.20;;
54831;SDS011;40730;53.068;6.572;2023-03-14T14:28:22;7.35;;;0.50;;
54831;SDS011;40730;53.068;6.572;2023-03-14T14:39:05;9.43;;;0.40;;
54831;SDS011;40730;53.068;6.572;2023-03-14T14:41:41;7.18;;;0.60;;
54831;SDS011;40730;53.068;6.572;2023-03-14T14:44:10;7.40;;;0.20;;
54831;SDS011;40730;53.068;6.572;2023-03-14T14:46:38;2.60;;;0.55;;
54831;SDS011;40730;53.068;6.572;2023-03-14T14:49:12;5.55;;;0.35;;
54831;SDS011;40730;53.068;6.572;2023-03-14T14:51:41;5.60;;;0.50;;
54831;SDS011;40730;53.068;6.572;2023-03-14T14:54:10;6.18;;;1.25;;
54831;SDS011;40730;53.068;6.572;2023-03-14T14:56:38;9.52;;;0.45;;
54831;SDS011;40730;53.068;6.572;2023-03-14T14:59:04;9.27;;;0.47;;
54831;SDS011;40730;53.068;6.572;2023-03-14T15:01:36;5.30;;;0.40;;
54831;SDS011;40730;53.068;6.572;2023-03-14T15:04:11;7.00;;;0.55;;
54831;SDS011;40730;53.068;6.572;2023-03-14T15:06:40;9.27;;;0.60;;
54831;SDS011;40730;53.068;6.572;2023-03-14T15:09:09;9.25;;;0.63;;
54831;SDS011;40730;53.068;6.572;2023-03-14T15:11:36;4.88;;;0.43;;
54831;SDS011;40730;53.068;6.572;2023-03-14T15:14:02;9.07;;;0.47;;
54831;SDS011;40730;53.068;6.572;2023-03-14T15:16:29;8.02;;;0.65;;
54831;SDS011;40730;53.068;6.572;2023-03-14T15:19:00;8.38;;;0.80;;
54831;SDS011;40730;53.068;6.572;2023-03-14T15:21:30;7.00;;;0.85;;
54831;SDS011;40730;53.068;6.572;2023-03-14T15:23:56;6.80;;;0.20;;
54831;SDS011;40730;53.068;6.572;2023-03-14T15:26:26;4.28;;;0.63;;
54831;SDS011;40730;53.068;6.572;2023-03-14T15:28:52;2.58;;;0.30;;
54831;SDS011;40730;53.068;6.572;2023-03-14T15:31:19;5.55;;;0.20;;
54831;SDS011;40730;53.068;6.572;2023-03-14T15:33:46;8.55;;;0.50;;
54831;SDS011;40730;53.068;6.572;2023-03-14T15:36:16;7.80;;;1.00;;
54831;SDS011;40730;53.068;6.572;2023-03-14T15:38:48;5.95;;;0.50;;
54831;SDS011;40730;53.068;6.572;2023-03-14T15:41:14;10.05;;;0.30;;
54831;SDS011;40730;53.068;6.572;2023-03-14T15:43:40;4.05;;;0.38;;
54831;SDS011;40730;53.068;6.572;2023-03-14T15:46:08;6.32;;;0.40;;
54831;SDS011;40730;53.068;6.572;2023-03-14T15:48:34;8.00;;;0.40;;
54831;SDS011;40730;53.068;6.572;2023-03-14T15:51:00;10.45;;;0.75;;
54831;SDS011;40730;53.068;6.572;2023-03-14T15:53:26;4.43;;;0.40;;
54831;SDS011;40730;53.068;6.572;2023-03-14T15:55:51;9.25;;;0.30;;
54831;SDS011;40730;53.068;6.572;2023-03-14T15:58:17;2.90;;;0.20;;
54831;SDS011;40730;53.068;6.572;2023-03-14T16:00:43;4.10;;;0.28;;
54831;SDS011;40730;53.068;6.572;2023-03-14T16:03:09;6.15;;;0.30;;
54831;SDS011;40730;53.068;6.572;2023-03-14T16:05:37;7.97;;;0.47;;
54831;SDS011;40730;53.068;6.572;2023-03-14T16:08:03;4.88;;;0.63;;
54831;SDS011;40730;53.068;6.572;2023-03-14T16:10:29;5.68;;;0.28;;